Terminal Aerodrome Forecast
Issued by NWS King Salmon, AK

Home | Current Version | Previous Version | Text Only | Print | Product List | Glossary On
Versions: 1 2 3 4 5 6 7 8 9 10 11 12 13 14 15 16 17 18 19 20 21 22 23 24 25 26 27 28 29 30 31 32
704
FTAK31 PANC 270522
TAFAKN
TAF
PAKN 270522Z 2706/2806 32005KT P6SM -SHRA SCT030 BKN050 OVC070
     FM271000 VRB04KT P6SM VCSH SCT030 OVC050
     FM272200 33005KT P6SM -SHRA BKN050=

USA.gov is the U.S. government's official web portal to all federal, state and local government web resources and services.